Aeroporto :
LOGIN :

Iscrizione | Disclaimer

   EN    FR    IT 

 










Sommario :    VFR   VFR Marginale   IFR   IFR Intensivo   IFR Molto Intensivo
Visibilità : 
Base nubi : 
>= 8 km
>= 3000ft
5 / 8 km
1000 / 3000 ft
1500m / 5 km
500 / 1000 ft
800 / 1500m
200 / 500 ft
< 800m
< 200 ft
Simboli :   Temporali  Nebbia  Neve Forte  Precipitazioni Forti  Vento > 20 kt
SIGMETs :   Varie  Temporali  Ghiacco  Turbolenza  Onda orograficha  Ceneri Vulcaniche






- Altitudine del aeroporto : 587 ft
- Codice IATA : XCR


LFOK - Chalons Vatry

ULTIMO METAR :
  • 200030Z AUTO 30009KT 9999 SCT031 02/01 Q1019 NOSIG

METARs OBSOLETI :
  • 200000Z AUTO 29009KT 9999 FEW030 02/01 Q1019 NOSIG
  • 192330Z AUTO 29008KT 9999 FEW030 02/01 Q1019 NOSIG
  • 192300Z AUTO 31008KT CAVOK 03/01 Q1019 NOSIG
  • 192230Z AUTO 29006KT CAVOK 03/01 Q1019 NOSIG
  • 192200Z AUTO 34009KT CAVOK 04/02 Q1018 NOSIG
  • 192130Z AUTO 34015KT 9999 FEW039 05/02 Q1018 NOSIG
  • 192100Z AUTO 34017KT 9999 FEW017 SCT023 06/03 Q1018 NOSIG
  • 192030Z AUTO 32006KT 9999 FEW016 SCT021 BKN027 07/06 Q1017 NOSIG

TAF TAF LFOK
Valido dal 20 a 00 ore il 21 a 00 ore UTC


192300Z 2000/2024 33012KT 9999 SCT030
TEMPO 2006/2009 BKN012
TEMPO 2009/2018 34015G25KT
PROB40
TEMPO 2010/2014 3000 SHRAGS SCT018TCU BKN025
TEMPO 2014/2017 3500 SHRA SCT020 BKN030TCU



MetMap, La meteo Aeronautica in un colpo d'occhio ! - Copyright ORBIFLY Dicembre 2007 - Disclaimer

ORBIFLY MET'MAP TEAM :

Programmazione e sviluppo : Alexandra Zaïnal
Concezione : Baudouin d'Aumeries
Supporto tecnico e logistico : Manuel Goepfert
Aiuto : Marc-Olivier Méhu
Aiuto per la traduzione : Arnaldo La Scala




FONTI E CREDITI :

   NOAA